createdAt,value
2019-01-04T00:04:16.647Z,79.60
2019-01-04T00:09:28.135Z,79.10
2019-01-04T00:14:39.827Z,79.50
2019-01-04T00:19:51.819Z,79.50
2019-01-04T00:25:03.676Z,79.20
2019-01-04T00:30:13.999Z,79.10
2019-01-04T00:35:25.464Z,79.00
2019-01-04T00:40:37.395Z,79.00
2019-01-04T00:45:49.308Z,78.70
2019-01-04T00:51:01.099Z,78.70
2019-01-04T00:56:12.951Z,78.70
2019-01-04T01:01:24.968Z,78.60
2019-01-04T01:06:37.004Z,78.60
2019-01-04T01:11:48.572Z,78.60
2019-01-04T01:17:00.511Z,78.50
2019-01-04T01:22:12.319Z,78.50
2019-01-04T01:27:24.135Z,78.30
2019-01-04T01:32:35.971Z,78.60
2019-01-04T01:37:47.932Z,78.60
2019-01-04T01:42:59.996Z,78.50
2019-01-04T01:48:12.115Z,78.30
2019-01-04T01:53:24.299Z,78.50
2019-01-04T01:58:35.922Z,78.50
2019-01-04T02:03:47.943Z,78.90
2019-01-04T02:09:07.118Z,78.90
2019-01-04T02:14:16.422Z,79.30
2019-01-04T02:19:28.503Z,79.70
2019-01-04T02:24:40.556Z,79.70
2019-01-04T02:29:52.403Z,80.10
2019-01-04T02:35:03.998Z,80.00
2019-01-04T02:40:15.968Z,80.40
2019-01-04T02:45:27.936Z,80.00
2019-01-04T02:50:40.427Z,80.30
2019-01-04T02:55:52.927Z,80.10
2019-01-04T03:01:04.811Z,80.10
2019-01-04T03:06:04.459Z,80.40
2019-01-04T03:11:04.095Z,80.40
2019-01-04T03:16:03.756Z,80.50
2019-01-04T03:21:03.739Z,80.50
2019-01-04T03:26:15.203Z,80.40
2019-01-04T03:31:26.952Z,80.70
2019-01-04T03:36:38.915Z,80.90
2019-01-04T03:41:50.536Z,80.90
2019-01-04T03:47:02.203Z,81.00
2019-01-04T03:52:13.993Z,81.00
2019-01-04T03:57:25.167Z,80.80
2019-01-04T04:02:36.675Z,81.00
2019-01-04T04:07:48.412Z,80.90
2019-01-04T04:13:00.240Z,81.00
2019-01-04T04:18:11.927Z,81.00
2019-01-04T04:23:23.924Z,81.00
2019-01-04T04:28:35.971Z,81.20
2019-01-04T04:33:47.964Z,81.40
2019-01-04T04:38:59.499Z,80.90
2019-01-04T04:44:11.847Z,81.30
2019-01-04T04:49:11.515Z,81.00
2019-01-04T04:54:30.406Z,81.40
2019-01-04T04:59:42.480Z,81.50
2019-01-04T05:04:54.243Z,81.40
2019-01-04T05:10:05.600Z,81.20
2019-01-04T05:15:17.692Z,81.00
2019-01-04T05:20:29.787Z,81.70
2019-01-04T05:25:41.739Z,81.70
2019-01-04T05:30:53.189Z,82.20
2019-01-04T05:36:04.628Z,82.10
2019-01-04T05:41:16.612Z,82.60
2019-01-04T05:46:28.348Z,82.30
2019-01-04T05:51:40.289Z,82.50
2019-01-04T05:56:39.971Z,82.60
2019-01-04T06:01:39.632Z,82.70
2019-01-04T06:06:51.360Z,82.60
2019-01-04T06:12:03.275Z,82.90
2019-01-04T06:17:15.191Z,83.00
2019-01-04T06:22:26.772Z,83.60
2019-01-04T06:27:38.751Z,83.50
2019-01-04T06:32:51.712Z,83.20
2019-01-04T06:38:03.640Z,84.00
2019-01-04T06:43:15.668Z,84.10
2019-01-04T06:48:27.126Z,83.80
2019-01-04T06:53:39.120Z,84.20
2019-01-04T06:58:50.723Z,84.40
2019-01-04T07:04:02.503Z,83.50
2019-01-04T07:09:13.847Z,84.10
2019-01-04T07:14:25.608Z,84.00
2019-01-04T07:19:37.685Z,84.40
2019-01-04T07:24:49.564Z,84.50
2019-01-04T07:30:01.737Z,84.50
2019-01-04T07:35:13.507Z,84.40
2019-01-04T07:40:25.387Z,84.30
2019-01-04T07:45:37.243Z,84.60
2019-01-04T07:50:49.518Z,84.70
2019-01-04T07:56:01.393Z,85.00
2019-01-04T08:01:13.094Z,85.50
2019-01-04T08:06:24.939Z,84.80
2019-01-04T08:11:36.152Z,85.10
2019-01-04T08:16:47.446Z,85.40
2019-01-04T08:21:58.689Z,85.70
2019-01-04T08:27:10.912Z,85.60
2019-01-04T08:32:23.208Z,86.20
2019-01-04T08:37:35.111Z,86.10
2019-01-04T08:42:47.090Z,86.20
2019-01-04T08:47:59.415Z,86.90
2019-01-04T08:53:10.933Z,87.00
2019-01-04T08:58:22.646Z,87.10
2019-01-04T09:03:34.129Z,86.90
2019-01-04T09:08:45.432Z,87.50
2019-01-04T09:13:57.604Z,87.50
2019-01-04T09:19:09.639Z,87.60
2019-01-04T09:24:21.772Z,87.60
2019-01-04T09:29:33.183Z,87.90
2019-01-04T09:34:45.174Z,88.00
2019-01-04T09:39:55.104Z,88.20
2019-01-04T09:45:07.098Z,88.00
2019-01-04T09:50:19.168Z,87.70
2019-01-04T09:55:31.784Z,88.10
2019-01-04T10:00:43.661Z,88.30
2019-01-04T10:05:55.008Z,88.00
2019-01-04T10:11:07.056Z,89.30
2019-01-04T10:16:18.297Z,88.70
2019-01-04T10:21:30.096Z,89.00
2019-01-04T10:26:29.798Z,88.60
2019-01-04T10:31:48.699Z,88.80
2019-01-04T10:37:01.605Z,88.10
2019-01-04T10:42:13.452Z,88.70
2019-01-04T10:47:24.971Z,88.60
2019-01-04T10:52:36.681Z,88.60
2019-01-04T10:57:48.595Z,88.70
2019-01-04T11:03:00.043Z,88.80
2019-01-04T11:08:11.899Z,88.80
2019-01-04T11:13:23.939Z,88.80
2019-01-04T11:18:35.820Z,88.90
2019-01-04T11:23:47.687Z,88.90
2019-01-04T11:28:59.524Z,89.50
2019-01-04T11:34:11.280Z,89.20
2019-01-04T11:39:49.455Z,89.90
2019-01-04T11:45:00.928Z,90.00
2019-01-04T11:50:12.662Z,89.90
2019-01-04T11:55:24.512Z,89.70
2019-01-04T12:00:36.186Z,90.00
2019-01-04T12:05:48.595Z,89.80
2019-01-04T12:11:00.763Z,90.00
2019-01-04T12:16:12.836Z,90.10
2019-01-04T12:21:24.568Z,90.10
2019-01-04T12:26:36.619Z,90.20
2019-01-04T12:31:48.344Z,90.20
2019-01-04T12:37:00.147Z,90.20
2019-01-04T12:42:12.088Z,90.20
2019-01-04T12:47:23.482Z,90.30
2019-01-04T12:52:34.795Z,90.20
2019-01-04T12:57:46.580Z,90.00
2019-01-04T13:02:58.524Z,90.20
2019-01-04T13:08:09.939Z,90.10
2019-01-04T13:13:21.716Z,90.30
2019-01-04T13:18:33.773Z,90.90
2019-01-04T13:23:45.263Z,90.40
2019-01-04T13:28:57.414Z,90.50
2019-01-04T13:34:09.307Z,90.20
2019-01-04T13:39:20.619Z,90.40
2019-01-04T13:44:32.419Z,90.30
2019-01-04T13:49:44.160Z,90.40
2019-01-04T13:54:55.966Z,90.30
2019-01-04T14:00:06.285Z,90.30
2019-01-04T14:05:25.836Z,90.30
2019-01-04T14:10:37.631Z,90.30
2019-01-04T14:15:52.554Z,90.50
2019-01-04T14:21:04.591Z,90.50
2019-01-04T14:26:16.576Z,90.70
2019-01-04T14:31:27.939Z,90.50
2019-01-04T14:36:40.188Z,90.50
2019-01-04T14:41:52.004Z,90.50
2019-01-04T14:47:04.019Z,90.50
2019-01-04T14:52:14.267Z,90.40
2019-01-04T14:57:33.159Z,90.40
2019-01-04T15:02:44.591Z,90.30
2019-01-04T15:07:55.959Z,90.30
2019-01-04T15:13:07.719Z,90.20
2019-01-04T15:18:18.972Z,90.10
2019-01-04T15:23:31.283Z,90.20
2019-01-04T15:28:42.880Z,90.20
2019-01-04T15:33:54.856Z,90.30
2019-01-04T15:39:06.430Z,90.30
2019-01-04T15:44:18.075Z,90.30
2019-01-04T15:49:30.001Z,90.40
2019-01-04T15:54:42.159Z,90.50
2019-01-04T15:59:53.473Z,90.30
2019-01-04T16:05:05.664Z,90.40
2019-01-04T16:10:17.856Z,90.40
2019-01-04T16:15:29.363Z,90.40
2019-01-04T16:20:42.128Z,90.40
2019-01-04T16:25:53.466Z,90.50
2019-01-04T16:30:53.412Z,90.50
2019-01-04T16:36:05.293Z,90.50
2019-01-04T16:41:18.278Z,90.50
2019-01-04T16:46:30.366Z,90.40
2019-01-04T16:51:42.399Z,90.40
2019-01-04T16:56:54.261Z,90.60
2019-01-04T17:02:06.053Z,90.50
2019-01-04T17:07:17.311Z,90.60
2019-01-04T17:12:28.827Z,90.50
2019-01-04T17:17:40.979Z,90.50
2019-01-04T17:22:52.567Z,90.70
2019-01-04T17:27:52.360Z,90.60
2019-01-04T17:33:04.275Z,90.60
2019-01-04T17:38:16.220Z,90.70
2019-01-04T17:43:27.747Z,90.70
2019-01-04T17:48:39.724Z,90.80
2019-01-04T17:53:50.939Z,90.70
2019-01-04T17:59:03.332Z,90.90
2019-01-04T18:15:24.126Z,91.00
2019-01-04T18:47:47.572Z,90.90
2019-01-04T18:52:59.540Z,90.90
2019-01-04T18:58:29.332Z,90.70
2019-01-04T19:03:49.484Z,90.70
2019-01-04T19:09:01.412Z,90.90
2019-01-04T19:14:14.763Z,90.90
2019-01-04T19:19:26.614Z,91.00
2019-01-04T19:24:38.904Z,91.20
2019-01-04T19:29:50.694Z,91.60
2019-01-04T19:41:03.180Z,91.30
2019-01-04T19:46:56.399Z,91.20
2019-01-04T19:51:50.507Z,91.30
2019-01-04T19:57:09.388Z,91.40
2019-01-04T20:02:21.083Z,91.40
2019-01-04T20:07:44.600Z,91.40
2019-01-04T20:13:15.492Z,91.60
2019-01-04T20:18:27.280Z,91.40
2019-01-04T20:23:57.823Z,91.50
2019-01-04T20:29:28.333Z,91.60
2019-01-04T20:34:58.908Z,91.60
2019-01-04T20:40:30.654Z,91.60
2019-01-04T20:46:01.319Z,91.70
2019-01-04T20:51:21.291Z,91.70
2019-01-04T20:56:40.033Z,91.70
2019-01-04T21:02:02.262Z,91.80
2019-01-04T21:07:21.001Z,91.70
2019-01-04T22:07:44.622Z,91.30
2019-01-04T22:08:50.603Z,91.40
2019-01-04T22:14:21.343Z,91.50
2019-01-04T22:19:55.141Z,91.60
2019-01-04T22:25:25.751Z,91.60
2019-01-04T22:30:46.047Z,91.50
2019-01-04T22:36:16.823Z,91.60
2019-01-04T22:41:47.810Z,91.50
2019-01-04T22:47:38.004Z,91.60
2019-01-04T22:53:08.905Z,91.70
2019-01-04T22:58:39.874Z,91.70
2019-01-04T23:04:02.441Z,91.70
2019-01-04T23:09:33.077Z,91.90
2019-01-04T23:14:57.628Z,91.90
2019-01-04T23:20:28.337Z,91.80
2019-01-04T23:25:58.900Z,91.80
2019-01-04T23:31:29.777Z,91.70
2019-01-04T23:37:00.903Z,91.70
2019-01-04T23:42:29.267Z,91.70
2019-01-04T23:47:58.995Z,91.80
2019-01-04T23:53:32.412Z,91.80
2019-01-04T23:59:05.404Z,91.90
